PTVZE EKVG-BIKF
Flight info
| Callsign | PTVZE |
|---|---|
| Flight time | 1h 8m |
| Altitude | 43000 |
| Route | MY DCT ING DCT NASBU NASBU5N |
| Aircraft | C750/M-SBDE3FGHRWXY/S |
Departure
| Time | 2026-05-06 16:27 |
|---|---|
| Airport | Vágar Airport (EKVG) |
Arrival
| Time | 2026-05-06 17:35 |
|---|---|
| Airport | Keflavik International Airport (BIKF) |
| Time | Latitude | Longitude | Altitude | Speed | Heading |
|---|---|---|---|---|---|
| 2026-05-06 16:05 | 62.06668 | -7.27841 | 288 ft | 0 kts | 28° |
| 2026-05-06 16:21 | 62.06670 | -7.27840 | 288 ft | 0 kts | 15° |
| 2026-05-06 16:21 | 62.06674 | -7.27840 | 288 ft | 2 kts | 359° |
| 2026-05-06 16:21 | 62.06678 | -7.27867 | 290 ft | 6 kts | 289° |
| 2026-05-06 16:21 | 62.06665 | -7.27899 | 288 ft | 3 kts | 178° |
| 2026-05-06 16:22 | 62.06636 | -7.27883 | 289 ft | 1 kts | 193° |
| 2026-05-06 16:22 | 62.06633 | -7.27886 | 289 ft | 1 kts | 206° |
| 2026-05-06 16:22 | 62.06630 | -7.27914 | 288 ft | 4 kts | 265° |
| 2026-05-06 16:22 | 62.06638 | -7.27962 | 288 ft | 4 kts | 295° |
| 2026-05-06 16:23 | 62.06641 | -7.28032 | 292 ft | 8 kts | 249° |
| 2026-05-06 16:23 | 62.06558 | -7.28082 | 294 ft | 16 kts | 188° |
| 2026-05-06 16:23 | 62.06485 | -7.28149 | 293 ft | 6 kts | 232° |
| 2026-05-06 16:23 | 62.06486 | -7.28258 | 289 ft | 11 kts | 298° |
| 2026-05-06 16:24 | 62.06521 | -7.28396 | 290 ft | 10 kts | 298° |
| 2026-05-06 16:24 | 62.06551 | -7.28513 | 291 ft | 9 kts | 297° |
| 2026-05-06 16:24 | 62.06582 | -7.28639 | 292 ft | 10 kts | 298° |
| 2026-05-06 16:24 | 62.06612 | -7.28762 | 296 ft | 10 kts | 298° |
| 2026-05-06 16:25 | 62.06649 | -7.28910 | 299 ft | 10 kts | 297° |
| 2026-05-06 16:25 | 62.06680 | -7.29034 | 298 ft | 8 kts | 297° |
| 2026-05-06 16:25 | 62.06697 | -7.29124 | 300 ft | 5 kts | 279° |
| 2026-05-06 16:25 | 62.06700 | -7.29191 | 298 ft | 3 kts | 311° |
| 2026-05-06 16:26 | 62.06710 | -7.29175 | 300 ft | 1 kts | 68° |
| 2026-05-06 16:26 | 62.06688 | -7.29068 | 298 ft | 10 kts | 117° |
| 2026-05-06 16:26 | 62.06562 | -7.28555 | 292 ft | 91 kts | 117° |
| 2026-05-06 16:26 | 62.06163 | -7.26972 | 483 ft | 135 kts | 120° |
| 2026-05-06 16:27 | 62.05727 | -7.25185 | 1177 ft | 135 kts | 110° |
| 2026-05-06 16:27 | 62.05261 | -7.23411 | 1843 ft | 143 kts | 117° |
| 2026-05-06 16:27 | 62.04577 | -7.21728 | 2218 ft | 168 kts | 143° |
| 2026-05-06 16:27 | 62.03289 | -7.21445 | 2291 ft | 205 kts | 197° |
| 2026-05-06 16:28 | 62.02147 | -7.22831 | 3464 ft | 177 kts | 214° |
| 2026-05-06 16:28 | 62.01185 | -7.24543 | 4078 ft | 192 kts | 222° |
| 2026-05-06 16:28 | 62.00270 | -7.26824 | 4514 ft | 219 kts | 233° |
| 2026-05-06 16:28 | 61.99491 | -7.29838 | 4957 ft | 246 kts | 247° |
| 2026-05-06 16:29 | 61.99030 | -7.33497 | 5562 ft | 262 kts | 262° |
| 2026-05-06 16:29 | 61.99014 | -7.37371 | 6567 ft | 263 kts | 277° |
| 2026-05-06 16:29 | 61.99472 | -7.41139 | 7480 ft | 265 kts | 293° |
| 2026-05-06 16:29 | 62.00384 | -7.44548 | 8493 ft | 266 kts | 309° |
| 2026-05-06 16:30 | 62.01691 | -7.47338 | 9525 ft | 268 kts | 324° |
| 2026-05-06 16:30 | 62.02750 | -7.48787 | 10155 ft | 270 kts | 332° |
| 2026-05-06 16:30 | 62.05021 | -7.51592 | 10659 ft | 302 kts | 331° |
| 2026-05-06 16:30 | 62.06933 | -7.54018 | 10822 ft | 329 kts | 331° |
| 2026-05-06 16:31 | 62.08955 | -7.56589 | 11278 ft | 341 kts | 330° |
| 2026-05-06 16:31 | 62.10965 | -7.59123 | 12150 ft | 340 kts | 331° |
| 2026-05-06 16:31 | 62.12787 | -7.62419 | 12703 ft | 351 kts | 308° |
| 2026-05-06 16:31 | 62.13784 | -7.67152 | 13569 ft | 351 kts | 288° |
| 2026-05-06 16:32 | 62.14385 | -7.72217 | 14296 ft | 352 kts | 284° |
| 2026-05-06 16:32 | 62.15012 | -7.77228 | 15174 ft | 345 kts | 287° |
| 2026-05-06 16:32 | 62.15875 | -7.82015 | 15886 ft | 347 kts | 294° |
| 2026-05-06 16:32 | 62.17019 | -7.86604 | 16466 ft | 351 kts | 298° |
| 2026-05-06 16:33 | 62.18214 | -7.91168 | 17175 ft | 352 kts | 297° |
| 2026-05-06 16:33 | 62.19281 | -7.95876 | 17949 ft | 352 kts | 293° |
| 2026-05-06 16:33 | 62.20297 | -8.00655 | 18669 ft | 352 kts | 294° |
| 2026-05-06 16:34 | 62.22480 | -8.10122 | 19948 ft | 356 kts | 294° |
| 2026-05-06 16:34 | 62.23569 | -8.14916 | 20599 ft | 358 kts | 293° |
| 2026-05-06 16:34 | 62.24644 | -8.19746 | 21249 ft | 360 kts | 293° |
| 2026-05-06 16:34 | 62.25733 | -8.24591 | 21897 ft | 362 kts | 293° |
| 2026-05-06 16:35 | 62.26838 | -8.29471 | 22538 ft | 364 kts | 293° |
| 2026-05-06 16:35 | 62.27941 | -8.34382 | 23234 ft | 366 kts | 293° |
| 2026-05-06 16:35 | 62.29041 | -8.39309 | 23904 ft | 366 kts | 292° |
| 2026-05-06 16:35 | 62.30148 | -8.44273 | 24366 ft | 371 kts | 293° |
| 2026-05-06 16:36 | 62.31268 | -8.49300 | 24838 ft | 374 kts | 293° |
| 2026-05-06 16:36 | 62.32397 | -8.54373 | 25310 ft | 378 kts | 293° |
| 2026-05-06 16:36 | 62.33536 | -8.59513 | 25789 ft | 382 kts | 293° |
| 2026-05-06 16:36 | 62.34685 | -8.64706 | 26268 ft | 386 kts | 293° |
| 2026-05-06 16:37 | 62.35845 | -8.69964 | 26747 ft | 390 kts | 293° |
| 2026-05-06 16:37 | 62.37012 | -8.75268 | 27228 ft | 394 kts | 293° |
| 2026-05-06 16:37 | 62.38193 | -8.80646 | 27691 ft | 399 kts | 293° |
| 2026-05-06 16:37 | 62.39386 | -8.86097 | 28089 ft | 405 kts | 293° |
| 2026-05-06 16:38 | 62.40591 | -8.91612 | 28597 ft | 409 kts | 293° |
| 2026-05-06 16:38 | 62.41806 | -8.97191 | 29074 ft | 413 kts | 293° |
| 2026-05-06 16:38 | 62.43031 | -9.02829 | 29553 ft | 417 kts | 293° |
| 2026-05-06 16:38 | 62.44265 | -9.08525 | 30016 ft | 421 kts | 293° |
| 2026-05-06 16:39 | 62.45510 | -9.14289 | 30402 ft | 425 kts | 293° |
| 2026-05-06 16:39 | 62.46747 | -9.20027 | 30761 ft | 429 kts | 293° |
| 2026-05-06 16:39 | 62.48008 | -9.25898 | 31156 ft | 432 kts | 293° |
| 2026-05-06 16:39 | 62.49271 | -9.31789 | 31722 ft | 431 kts | 293° |
| 2026-05-06 16:40 | 62.50530 | -9.37677 | 32192 ft | 432 kts | 293° |
| 2026-05-06 16:40 | 62.51793 | -9.43609 | 32664 ft | 435 kts | 293° |
| 2026-05-06 16:40 | 62.53059 | -9.49571 | 33098 ft | 437 kts | 294° |
| 2026-05-06 16:40 | 62.54332 | -9.55575 | 33636 ft | 438 kts | 294° |
| 2026-05-06 16:41 | 62.55600 | -9.61578 | 34148 ft | 438 kts | 294° |
| 2026-05-06 16:41 | 62.56871 | -9.67609 | 34554 ft | 440 kts | 294° |
| 2026-05-06 16:41 | 62.58143 | -9.73664 | 34978 ft | 441 kts | 294° |
| 2026-05-06 16:41 | 62.59410 | -9.79713 | 35428 ft | 441 kts | 294° |
| 2026-05-06 16:42 | 62.60677 | -9.85784 | 35869 ft | 442 kts | 294° |
| 2026-05-06 16:42 | 62.61944 | -9.91870 | 36295 ft | 443 kts | 294° |
| 2026-05-06 16:42 | 62.63212 | -9.97976 | 36775 ft | 443 kts | 294° |
| 2026-05-06 16:42 | 62.64476 | -10.04083 | 37210 ft | 444 kts | 294° |
| 2026-05-06 16:43 | 62.65740 | -10.10210 | 37677 ft | 445 kts | 293° |
| 2026-05-06 16:43 | 62.67007 | -10.16366 | 38135 ft | 445 kts | 293° |
| 2026-05-06 16:43 | 62.68267 | -10.22506 | 38732 ft | 443 kts | 293° |
| 2026-05-06 16:43 | 62.69519 | -10.28631 | 39104 ft | 444 kts | 293° |
| 2026-05-06 16:44 | 62.70776 | -10.34798 | 39388 ft | 447 kts | 293° |
| 2026-05-06 16:44 | 62.72036 | -10.40994 | 39855 ft | 445 kts | 293° |
| 2026-05-06 16:44 | 62.73284 | -10.47147 | 40236 ft | 445 kts | 293° |
| 2026-05-06 16:44 | 62.74524 | -10.53283 | 40806 ft | 441 kts | 293° |
| 2026-05-06 16:45 | 62.75759 | -10.59415 | 41210 ft | 441 kts | 293° |
| 2026-05-06 16:45 | 62.76989 | -10.65539 | 41626 ft | 441 kts | 293° |
| 2026-05-06 16:45 | 62.78222 | -10.71694 | 41818 ft | 446 kts | 293° |
| 2026-05-06 16:45 | 62.79466 | -10.77925 | 42091 ft | 449 kts | 293° |
| 2026-05-06 16:46 | 62.80708 | -10.84166 | 42520 ft | 447 kts | 293° |
| 2026-05-06 16:46 | 62.81940 | -10.90371 | 43020 ft | 440 kts | 293° |
| 2026-05-06 16:46 | 62.83164 | -10.96560 | 43070 ft | 448 kts | 293° |
| 2026-05-06 16:47 | 62.85681 | -11.09342 | 43076 ft | 465 kts | 293° |
| 2026-05-06 16:47 | 62.88274 | -11.22593 | 43096 ft | 481 kts | 293° |
| 2026-05-06 16:48 | 62.90925 | -11.36233 | 43084 ft | 490 kts | 293° |
| 2026-05-06 16:48 | 62.93594 | -11.50063 | 43104 ft | 492 kts | 293° |
| 2026-05-06 16:49 | 62.96228 | -11.63801 | 43097 ft | 487 kts | 293° |
| 2026-05-06 16:49 | 62.98869 | -11.77672 | 43098 ft | 495 kts | 293° |
| 2026-05-06 16:50 | 63.01503 | -11.91606 | 43107 ft | 493 kts | 292° |
| 2026-05-06 16:50 | 63.04151 | -12.05703 | 43109 ft | 503 kts | 292° |
| 2026-05-06 16:51 | 63.06796 | -12.19903 | 43096 ft | 497 kts | 292° |
| 2026-05-06 16:51 | 63.09410 | -12.34024 | 43101 ft | 496 kts | 292° |
| 2026-05-06 16:52 | 63.11997 | -12.48106 | 43105 ft | 497 kts | 292° |
| 2026-05-06 16:52 | 63.14566 | -12.62186 | 43100 ft | 498 kts | 292° |
| 2026-05-06 16:53 | 63.17147 | -12.76440 | 43111 ft | 497 kts | 292° |
| 2026-05-06 16:53 | 63.19710 | -12.90696 | 43111 ft | 502 kts | 292° |
| 2026-05-06 16:54 | 63.22260 | -13.04988 | 43107 ft | 500 kts | 292° |
| 2026-05-06 16:54 | 63.24803 | -13.19340 | 43113 ft | 497 kts | 292° |
| 2026-05-06 16:55 | 63.27317 | -13.33637 | 43120 ft | 500 kts | 291° |
| 2026-05-06 16:55 | 63.29832 | -13.48049 | 43120 ft | 498 kts | 291° |
| 2026-05-06 16:56 | 63.31914 | -13.60065 | 43119 ft | 499 kts | 291° |
| 2026-05-06 16:56 | 63.34400 | -13.74504 | 43130 ft | 505 kts | 291° |
| 2026-05-06 16:57 | 63.36879 | -13.89023 | 43136 ft | 501 kts | 291° |
| 2026-05-06 16:57 | 63.39336 | -14.03517 | 43132 ft | 499 kts | 291° |
| 2026-05-06 16:58 | 63.41791 | -14.18111 | 43145 ft | 505 kts | 291° |
| 2026-05-06 16:58 | 63.44234 | -14.32755 | 43151 ft | 501 kts | 291° |
| 2026-05-06 16:59 | 63.46675 | -14.47490 | 43143 ft | 509 kts | 291° |
| 2026-05-06 16:59 | 63.49098 | -14.62249 | 43144 ft | 503 kts | 291° |
| 2026-05-06 17:00 | 63.51483 | -14.76876 | 43152 ft | 498 kts | 291° |
| 2026-05-06 17:00 | 63.53847 | -14.91501 | 43148 ft | 500 kts | 291° |
| 2026-05-06 17:01 | 63.56195 | -15.06145 | 43147 ft | 499 kts | 290° |
| 2026-05-06 17:01 | 63.58545 | -15.20907 | 43170 ft | 506 kts | 290° |
| 2026-05-06 17:02 | 63.60874 | -15.35670 | 43163 ft | 505 kts | 290° |
| 2026-05-06 17:02 | 63.63199 | -15.50520 | 43173 ft | 502 kts | 291° |
| 2026-05-06 17:03 | 63.65517 | -15.65447 | 43155 ft | 508 kts | 290° |
| 2026-05-06 17:03 | 63.67816 | -15.80390 | 43163 ft | 506 kts | 290° |
| 2026-05-06 17:04 | 63.70121 | -15.95482 | 43165 ft | 509 kts | 290° |
| 2026-05-06 17:04 | 63.72392 | -16.10490 | 43167 ft | 503 kts | 290° |
| 2026-05-06 17:05 | 63.74633 | -16.25414 | 43163 ft | 501 kts | 290° |
| 2026-05-06 17:05 | 63.76863 | -16.40401 | 43165 ft | 501 kts | 289° |
| 2026-05-06 17:06 | 63.79078 | -16.55406 | 43171 ft | 507 kts | 289° |
| 2026-05-06 17:06 | 63.80726 | -16.70873 | 43181 ft | 507 kts | 279° |
| 2026-05-06 17:07 | 63.81443 | -16.86714 | 43183 ft | 506 kts | 278° |
| 2026-05-06 17:07 | 63.82281 | -17.02578 | 43181 ft | 508 kts | 278° |
| 2026-05-06 17:08 | 63.83022 | -17.18470 | 43167 ft | 507 kts | 277° |
| 2026-05-06 17:08 | 63.83789 | -17.34397 | 43166 ft | 511 kts | 278° |
| 2026-05-06 17:09 | 63.84524 | -17.50390 | 43159 ft | 511 kts | 277° |
| 2026-05-06 17:09 | 63.85242 | -17.66347 | 42648 ft | 500 kts | 277° |
| 2026-05-06 17:09 | 63.85586 | -17.74065 | 42009 ft | 487 kts | 277° |
| 2026-05-06 17:10 | 63.85915 | -17.81632 | 41378 ft | 476 kts | 277° |
| 2026-05-06 17:10 | 63.86231 | -17.89017 | 40760 ft | 466 kts | 277° |
| 2026-05-06 17:10 | 63.86542 | -17.96270 | 40159 ft | 457 kts | 277° |
| 2026-05-06 17:10 | 63.86844 | -18.03385 | 39574 ft | 452 kts | 277° |
| 2026-05-06 17:11 | 63.87138 | -18.10461 | 38979 ft | 449 kts | 276° |
| 2026-05-06 17:11 | 63.87428 | -18.17507 | 38332 ft | 448 kts | 277° |
| 2026-05-06 17:11 | 63.87713 | -18.24528 | 37736 ft | 449 kts | 277° |
| 2026-05-06 17:11 | 63.88000 | -18.31646 | 37150 ft | 456 kts | 277° |
| 2026-05-06 17:12 | 63.88286 | -18.38842 | 36554 ft | 459 kts | 277° |
| 2026-05-06 17:12 | 63.88569 | -18.46075 | 35944 ft | 461 kts | 277° |
| 2026-05-06 17:12 | 63.88848 | -18.53327 | 35339 ft | 462 kts | 277° |
| 2026-05-06 17:12 | 63.89125 | -18.60586 | 34729 ft | 463 kts | 277° |
| 2026-05-06 17:13 | 63.89400 | -18.67872 | 34100 ft | 464 kts | 277° |
| 2026-05-06 17:13 | 63.89671 | -18.75171 | 33476 ft | 463 kts | 276° |
| 2026-05-06 17:13 | 63.89937 | -18.82446 | 32867 ft | 464 kts | 276° |
| 2026-05-06 17:13 | 63.90201 | -18.89764 | 32254 ft | 465 kts | 276° |
| 2026-05-06 17:14 | 63.90462 | -18.97079 | 31642 ft | 466 kts | 276° |
| 2026-05-06 17:14 | 63.90719 | -19.04427 | 31032 ft | 466 kts | 276° |
| 2026-05-06 17:14 | 63.90973 | -19.11774 | 30418 ft | 466 kts | 276° |
| 2026-05-06 17:14 | 63.91221 | -19.19048 | 29753 ft | 459 kts | 276° |
| 2026-05-06 17:15 | 63.91462 | -19.26254 | 29156 ft | 455 kts | 276° |
| 2026-05-06 17:15 | 63.91698 | -19.33392 | 28556 ft | 452 kts | 276° |
| 2026-05-06 17:15 | 63.91930 | -19.40497 | 27964 ft | 449 kts | 276° |
| 2026-05-06 17:15 | 63.92156 | -19.47540 | 27369 ft | 445 kts | 276° |
| 2026-05-06 17:16 | 63.92376 | -19.54533 | 26793 ft | 442 kts | 276° |
| 2026-05-06 17:16 | 63.92592 | -19.61484 | 26212 ft | 440 kts | 276° |
| 2026-05-06 17:16 | 63.92804 | -19.68386 | 25640 ft | 436 kts | 276° |
| 2026-05-06 17:16 | 63.93011 | -19.75251 | 25057 ft | 434 kts | 276° |
| 2026-05-06 17:17 | 63.93213 | -19.82066 | 24487 ft | 431 kts | 276° |
| 2026-05-06 17:17 | 63.93410 | -19.88832 | 23908 ft | 428 kts | 276° |
| 2026-05-06 17:17 | 63.93604 | -19.95573 | 23313 ft | 427 kts | 277° |
| 2026-05-06 17:17 | 63.93793 | -20.02272 | 22754 ft | 422 kts | 276° |
| 2026-05-06 17:18 | 63.93977 | -20.08898 | 22199 ft | 419 kts | 277° |
| 2026-05-06 17:18 | 63.94157 | -20.15480 | 21645 ft | 413 kts | 276° |
| 2026-05-06 17:18 | 63.94333 | -20.21996 | 21100 ft | 413 kts | 276° |
| 2026-05-06 17:18 | 63.94503 | -20.28482 | 20566 ft | 410 kts | 277° |
| 2026-05-06 17:19 | 63.94615 | -20.34874 | 20017 ft | 408 kts | 272° |
| 2026-05-06 17:19 | 63.94238 | -20.41254 | 19498 ft | 407 kts | 262° |
| 2026-05-06 17:19 | 63.93737 | -20.47638 | 18962 ft | 402 kts | 263° |
| 2026-05-06 17:19 | 63.93267 | -20.53896 | 18422 ft | 401 kts | 263° |
| 2026-05-06 17:20 | 63.92831 | -20.60149 | 17865 ft | 400 kts | 263° |
| 2026-05-06 17:20 | 63.92387 | -20.66333 | 17334 ft | 395 kts | 262° |
| 2026-05-06 17:20 | 63.91926 | -20.72422 | 16823 ft | 390 kts | 263° |
| 2026-05-06 17:20 | 63.91465 | -20.78513 | 16305 ft | 388 kts | 262° |
| 2026-05-06 17:21 | 63.91018 | -20.84532 | 15793 ft | 384 kts | 262° |
| 2026-05-06 17:21 | 63.90574 | -20.90478 | 15292 ft | 381 kts | 262° |
| 2026-05-06 17:21 | 63.90126 | -20.96360 | 14792 ft | 377 kts | 262° |
| 2026-05-06 17:21 | 63.89677 | -21.02229 | 14294 ft | 375 kts | 262° |
| 2026-05-06 17:22 | 63.89230 | -21.08062 | 13783 ft | 374 kts | 262° |
| 2026-05-06 17:22 | 63.88786 | -21.13828 | 13284 ft | 369 kts | 262° |
| 2026-05-06 17:22 | 63.88345 | -21.19518 | 12835 ft | 366 kts | 262° |
| 2026-05-06 17:22 | 63.87901 | -21.25203 | 12401 ft | 363 kts | 262° |
| 2026-05-06 17:23 | 63.87460 | -21.30833 | 11977 ft | 363 kts | 262° |
| 2026-05-06 17:23 | 63.87019 | -21.36428 | 11558 ft | 358 kts | 262° |
| 2026-05-06 17:23 | 63.86581 | -21.41949 | 11136 ft | 347 kts | 262° |
| 2026-05-06 17:23 | 63.86182 | -21.46878 | 10775 ft | 300 kts | 263° |
| 2026-05-06 17:24 | 63.85803 | -21.51679 | 10376 ft | 308 kts | 263° |
| 2026-05-06 17:24 | 63.85429 | -21.56365 | 10018 ft | 296 kts | 262° |
| 2026-05-06 17:24 | 63.85061 | -21.60905 | 9658 ft | 290 kts | 262° |
| 2026-05-06 17:24 | 63.84699 | -21.65370 | 9318 ft | 287 kts | 263° |
| 2026-05-06 17:25 | 63.84339 | -21.69802 | 8986 ft | 285 kts | 262° |
| 2026-05-06 17:25 | 63.83980 | -21.74211 | 8654 ft | 285 kts | 263° |
| 2026-05-06 17:25 | 63.83619 | -21.78613 | 8316 ft | 283 kts | 262° |
| 2026-05-06 17:25 | 63.83258 | -21.82991 | 7978 ft | 283 kts | 263° |
| 2026-05-06 17:26 | 63.82897 | -21.87350 | 7652 ft | 280 kts | 262° |
| 2026-05-06 17:26 | 63.82538 | -21.91681 | 7328 ft | 279 kts | 262° |
| 2026-05-06 17:26 | 63.82180 | -21.95971 | 7000 ft | 276 kts | 262° |
| 2026-05-06 17:26 | 63.81823 | -22.00238 | 6680 ft | 275 kts | 263° |
| 2026-05-06 17:27 | 63.81467 | -22.04491 | 6343 ft | 274 kts | 262° |
| 2026-05-06 17:27 | 63.81109 | -22.08725 | 6015 ft | 274 kts | 262° |
| 2026-05-06 17:27 | 63.80571 | -22.12823 | 5681 ft | 276 kts | 253° |
| 2026-05-06 17:27 | 63.79931 | -22.16972 | 5362 ft | 275 kts | 253° |
| 2026-05-06 17:28 | 63.79331 | -22.21014 | 5045 ft | 273 kts | 253° |
| 2026-05-06 17:28 | 63.78715 | -22.25141 | 4711 ft | 274 kts | 253° |
| 2026-05-06 17:28 | 63.78107 | -22.29141 | 4385 ft | 269 kts | 255° |
| 2026-05-06 17:28 | 63.77509 | -22.33051 | 4076 ft | 257 kts | 255° |
| 2026-05-06 17:29 | 63.76996 | -22.36852 | 3749 ft | 248 kts | 263° |
| 2026-05-06 17:29 | 63.77169 | -22.40555 | 3581 ft | 230 kts | 291° |
| 2026-05-06 17:29 | 63.77668 | -22.43988 | 3694 ft | 235 kts | 287° |
| 2026-05-06 17:29 | 63.78215 | -22.47447 | 3631 ft | 224 kts | 294° |
| 2026-05-06 17:30 | 63.78780 | -22.50603 | 3480 ft | 212 kts | 298° |
| 2026-05-06 17:30 | 63.79313 | -22.53711 | 3309 ft | 213 kts | 297° |
| 2026-05-06 17:30 | 63.79836 | -22.56835 | 3129 ft | 212 kts | 297° |
| 2026-05-06 17:30 | 63.80722 | -22.59364 | 2884 ft | 203 kts | 329° |
| 2026-05-06 17:31 | 63.81980 | -22.60490 | 2745 ft | 192 kts | 355° |
| 2026-05-06 17:31 | 63.83297 | -22.60527 | 2742 ft | 191 kts | 3° |
| 2026-05-06 17:31 | 63.84636 | -22.60537 | 2737 ft | 196 kts | 1° |
| 2026-05-06 17:31 | 63.85938 | -22.60553 | 2738 ft | 171 kts | 2° |
| 2026-05-06 17:32 | 63.86992 | -22.60566 | 2713 ft | 141 kts | 4° |
| 2026-05-06 17:32 | 63.88005 | -22.60562 | 2602 ft | 147 kts | 4° |
| 2026-05-06 17:32 | 63.89024 | -22.60561 | 2491 ft | 146 kts | 3° |
| 2026-05-06 17:32 | 63.90043 | -22.60553 | 2345 ft | 145 kts | 4° |
| 2026-05-06 17:33 | 63.91011 | -22.60573 | 2020 ft | 128 kts | 2° |
| 2026-05-06 17:33 | 63.91841 | -22.60655 | 1623 ft | 114 kts | 2° |
| 2026-05-06 17:33 | 63.92617 | -22.60621 | 1201 ft | 110 kts | 6° |
| 2026-05-06 17:33 | 63.93353 | -22.60545 | 942 ft | 106 kts | 5° |
| 2026-05-06 17:34 | 63.94082 | -22.60573 | 660 ft | 102 kts | 3° |
| 2026-05-06 17:34 | 63.94780 | -22.60575 | 500 ft | 98 kts | 6° |
| 2026-05-06 17:34 | 63.95467 | -22.60580 | 367 ft | 98 kts | 6° |
| 2026-05-06 17:34 | 63.96151 | -22.60556 | 248 ft | 102 kts | 7° |
| 2026-05-06 17:35 | 63.96850 | -22.60555 | 147 ft | 96 kts | 5° |
| 2026-05-06 17:35 | 63.97374 | -22.60538 | 143 ft | 48 kts | 1° |
| 2026-05-06 17:35 | 63.97573 | -22.60544 | 145 ft | 20 kts | 360° |
| 2026-05-06 17:36 | 63.97881 | -22.60543 | 144 ft | 25 kts | 359° |
| 2026-05-06 17:36 | 63.98058 | -22.60548 | 145 ft | 18 kts | 352° |
| 2026-05-06 17:36 | 63.98148 | -22.60658 | 147 ft | 13 kts | 331° |
| 2026-05-06 17:36 | 63.98214 | -22.60744 | 146 ft | 11 kts | 330° |
| 2026-05-06 17:37 | 63.98275 | -22.60821 | 147 ft | 9 kts | 331° |
| 2026-05-06 17:37 | 63.98333 | -22.60900 | 148 ft | 11 kts | 324° |
| 2026-05-06 17:37 | 63.98395 | -22.60938 | 148 ft | 7 kts | 360° |
| 2026-05-06 17:37 | 63.98398 | -22.60938 | 148 ft | 0 kts | 360° |
| 2026-05-06 17:46 | 63.98399 | -22.60938 | 148 ft | 1 kts | 360° |
| 2026-05-06 17:46 | 63.98430 | -22.60938 | 148 ft | 6 kts | 360° |
| 2026-05-06 17:46 | 63.98474 | -22.60938 | 148 ft | 9 kts | 360° |
| 2026-05-06 17:46 | 63.98543 | -22.60939 | 148 ft | 10 kts | 359° |
| 2026-05-06 17:47 | 63.98611 | -22.60941 | 149 ft | 10 kts | 359° |
| 2026-05-06 17:47 | 63.98684 | -22.60942 | 155 ft | 12 kts | 359° |
| 2026-05-06 17:47 | 63.98807 | -22.60946 | 152 ft | 19 kts | 359° |
| 2026-05-06 17:47 | 63.98925 | -22.60945 | 155 ft | 15 kts | 1° |
| 2026-05-06 17:48 | 63.99021 | -22.60945 | 158 ft | 12 kts | 360° |
| 2026-05-06 17:48 | 63.99102 | -22.60942 | 160 ft | 11 kts | 1° |
| 2026-05-06 17:48 | 63.99165 | -22.60995 | 164 ft | 9 kts | 298° |
| 2026-05-06 17:48 | 63.99172 | -22.61130 | 161 ft | 10 kts | 269° |
| 2026-05-06 17:49 | 63.99172 | -22.61313 | 163 ft | 13 kts | 269° |
| 2026-05-06 17:49 | 63.99172 | -22.61548 | 162 ft | 16 kts | 270° |
| 2026-05-06 17:49 | 63.99171 | -22.61816 | 161 ft | 18 kts | 271° |
| 2026-05-06 17:49 | 63.99188 | -22.61986 | 161 ft | 6 kts | 342° |
| 2026-05-06 17:50 | 63.99222 | -22.61989 | 158 ft | 4 kts | 1° |
| 2026-05-06 17:50 | 63.99247 | -22.61988 | 157 ft | 3 kts | 1° |